Weather at Willow Springs Ranch Airport

Public forecast

Using degrees Fahrenheit for public forecast. Weather courtesy of forecast.io.

Closest aviation weather report (METAR) to Willow Springs Ranch Airport

Closest report is Laughlin Bullhead International Airport, 12.4 nm (22.9 km) SW. Retrieved 2021/07/27 23:48 UTC (1 hour ago):

KIFP 272348Z 22005KT 10SM SCT090 SCT160 41/10 A2982

Closest aviation forecast (TAF) to Willow Springs Ranch Airport

Closest forecast is Laughlin Bullhead International Airport, 12.4 nm (22.9 km) SW. Retrieved 2021-07-28 00:33 UTC (25 minutes ago):

TAF KIFP 272331Z 2800/2824 VRB06KT P6SM SCT120 FM280500 15007KT P6SM SCT150 SCT250 FM281600 19007KT P6SM SCT150 SCT250